sensor_id;sensor_type;location;lat;lon;timestamp;temperature;humidity
23114;DHT22;11726;50.122;8.832;2022-07-22T00:02:24;19.70;99.90
23114;DHT22;11726;50.122;8.832;2022-07-22T00:04:50;19.70;99.90
23114;DHT22;11726;50.122;8.832;2022-07-22T00:07:17;19.70;99.90
23114;DHT22;11726;50.122;8.832;2022-07-22T00:09:44;19.70;99.90
23114;DHT22;11726;50.122;8.832;2022-07-22T00:12:11;19.70;99.90
23114;DHT22;11726;50.122;8.832;2022-07-22T00:14:37;19.60;99.90
23114;DHT22;11726;50.122;8.832;2022-07-22T00:17:04;19.60;99.90
23114;DHT22;11726;50.122;8.832;2022-07-22T00:19:31;19.60;99.90
23114;DHT22;11726;50.122;8.832;2022-07-22T00:21:57;19.50;99.90
23114;DHT22;11726;50.122;8.832;2022-07-22T00:24:24;19.50;99.90
23114;DHT22;11726;50.122;8.832;2022-07-22T00:26:51;19.50;99.90
23114;DHT22;11726;50.122;8.832;2022-07-22T00:29:17;19.40;99.90
23114;DHT22;11726;50.122;8.832;2022-07-22T00:31:44;19.50;99.90
23114;DHT22;11726;50.122;8.832;2022-07-22T00:34:11;19.50;99.90
23114;DHT22;11726;50.122;8.832;2022-07-22T00:36:37;19.50;99.90
23114;DHT22;11726;50.122;8.832;2022-07-22T00:39:04;19.40;99.90
23114;DHT22;11726;50.122;8.832;2022-07-22T00:41:31;19.40;99.90
23114;DHT22;11726;50.122;8.832;2022-07-22T00:44:05;19.40;99.90
23114;DHT22;11726;50.122;8.832;2022-07-22T00:46:33;19.30;99.90
23114;DHT22;11726;50.122;8.832;2022-07-22T00:49:00;19.30;99.90
23114;DHT22;11726;50.122;8.832;2022-07-22T00:51:29;19.30;99.90
23114;DHT22;11726;50.122;8.832;2022-07-22T00:53:57;19.20;99.90
23114;DHT22;11726;50.122;8.832;2022-07-22T00:56:25;19.30;99.90
23114;DHT22;11726;50.122;8.832;2022-07-22T00:58:54;19.20;99.90
23114;DHT22;11726;50.122;8.832;2022-07-22T01:01:21;19.20;99.90
23114;DHT22;11726;50.122;8.832;2022-07-22T01:03:48;19.30;99.90
23114;DHT22;11726;50.122;8.832;2022-07-22T01:06:19;19.20;99.90
23114;DHT22;11726;50.122;8.832;2022-07-22T01:08:46;19.30;99.90
23114;DHT22;11726;50.122;8.832;2022-07-22T01:11:19;19.20;99.90
23114;DHT22;11726;50.122;8.832;2022-07-22T01:13:47;19.30;99.90
23114;DHT22;11726;50.122;8.832;2022-07-22T01:16:15;19.30;99.90
23114;DHT22;11726;50.122;8.832;2022-07-22T01:18:42;19.30;99.90
23114;DHT22;11726;50.122;8.832;2022-07-22T01:21:10;19.20;99.90
23114;DHT22;11726;50.122;8.832;2022-07-22T01:23:36;19.10;99.90
23114;DHT22;11726;50.122;8.832;2022-07-22T01:26:04;19.10;99.90
23114;DHT22;11726;50.122;8.832;2022-07-22T01:28:32;19.10;99.90
23114;DHT22;11726;50.122;8.832;2022-07-22T01:30:59;19.10;99.90
23114;DHT22;11726;50.122;8.832;2022-07-22T01:33:26;19.00;99.90
23114;DHT22;11726;50.122;8.832;2022-07-22T01:35:53;19.00;99.90
23114;DHT22;11726;50.122;8.832;2022-07-22T01:38:20;19.00;99.90
23114;DHT22;11726;50.122;8.832;2022-07-22T01:40:46;19.00;99.90
23114;DHT22;11726;50.122;8.832;2022-07-22T01:43:14;18.90;99.90
23114;DHT22;11726;50.122;8.832;2022-07-22T01:45:49;18.90;99.90
23114;DHT22;11726;50.122;8.832;2022-07-22T01:48:17;19.00;99.90
23114;DHT22;11726;50.122;8.832;2022-07-22T01:50:44;18.90;99.90
23114;DHT22;11726;50.122;8.832;2022-07-22T01:53:11;19.00;99.90
23114;DHT22;11726;50.122;8.832;2022-07-22T01:55:38;19.00;99.90
23114;DHT22;11726;50.122;8.832;2022-07-22T01:58:05;19.00;99.90
23114;DHT22;11726;50.122;8.832;2022-07-22T02:00:32;19.00;99.90
23114;DHT22;11726;50.122;8.832;2022-07-22T02:02:59;19.00;99.90
23114;DHT22;11726;50.122;8.832;2022-07-22T02:05:26;18.90;99.90
23114;DHT22;11726;50.122;8.832;2022-07-22T02:07:58;18.90;99.90
23114;DHT22;11726;50.122;8.832;2022-07-22T02:10:24;19.00;99.90
23114;DHT22;11726;50.122;8.832;2022-07-22T02:12:51;18.90;99.90
23114;DHT22;11726;50.122;8.832;2022-07-22T02:15:17;19.00;99.90
23114;DHT22;11726;50.122;8.832;2022-07-22T02:17:44;19.00;99.90
23114;DHT22;11726;50.122;8.832;2022-07-22T02:20:11;18.90;99.90
23114;DHT22;11726;50.122;8.832;2022-07-22T02:22:37;18.90;99.90
23114;DHT22;11726;50.122;8.832;2022-07-22T02:25:05;18.80;99.90
23114;DHT22;11726;50.122;8.832;2022-07-22T02:27:32;18.60;99.90
23114;DHT22;11726;50.122;8.832;2022-07-22T02:29:59;18.70;99.90
23114;DHT22;11726;50.122;8.832;2022-07-22T02:32:25;18.70;99.90
23114;DHT22;11726;50.122;8.832;2022-07-22T02:34:52;18.80;99.90
23114;DHT22;11726;50.122;8.832;2022-07-22T02:37:19;18.90;99.90
23114;DHT22;11726;50.122;8.832;2022-07-22T02:39:45;18.80;99.90
23114;DHT22;11726;50.122;8.832;2022-07-22T02:42:12;18.80;99.90
23114;DHT22;11726;50.122;8.832;2022-07-22T02:44:39;18.80;99.90
23114;DHT22;11726;50.122;8.832;2022-07-22T02:47:06;18.80;99.90
23114;DHT22;11726;50.122;8.832;2022-07-22T02:49:32;18.80;99.90
23114;DHT22;11726;50.122;8.832;2022-07-22T02:51:59;18.80;99.90
23114;DHT22;11726;50.122;8.832;2022-07-22T02:54:26;18.70;99.90
23114;DHT22;11726;50.122;8.832;2022-07-22T02:56:52;18.60;99.90
23114;DHT22;11726;50.122;8.832;2022-07-22T02:59:19;18.70;99.90
23114;DHT22;11726;50.122;8.832;2022-07-22T03:01:45;18.60;99.90
23114;DHT22;11726;50.122;8.832;2022-07-22T03:04:12;18.50;99.90
23114;DHT22;11726;50.122;8.832;2022-07-22T03:06:39;18.60;99.90
23114;DHT22;11726;50.122;8.832;2022-07-22T03:09:06;18.60;99.90
23114;DHT22;11726;50.122;8.832;2022-07-22T03:11:32;18.50;99.90
23114;DHT22;11726;50.122;8.832;2022-07-22T03:13:59;18.40;99.90
23114;DHT22;11726;50.122;8.832;2022-07-22T03:16:25;18.50;99.90
23114;DHT22;11726;50.122;8.832;2022-07-22T03:18:52;18.60;99.90
23114;DHT22;11726;50.122;8.832;2022-07-22T03:21:19;18.50;99.90
23114;DHT22;11726;50.122;8.832;2022-07-22T03:23:46;18.50;99.90
23114;DHT22;11726;50.122;8.832;2022-07-22T03:26:13;18.50;99.90
23114;DHT22;11726;50.122;8.832;2022-07-22T03:28:39;18.50;99.90
23114;DHT22;11726;50.122;8.832;2022-07-22T03:31:06;18.50;99.90
23114;DHT22;11726;50.122;8.832;2022-07-22T03:33:33;18.50;99.90
23114;DHT22;11726;50.122;8.832;2022-07-22T03:35:59;18.60;99.90
23114;DHT22;11726;50.122;8.832;2022-07-22T03:38:26;18.70;99.90
23114;DHT22;11726;50.122;8.832;2022-07-22T03:40:53;18.70;99.90
23114;DHT22;11726;50.122;8.832;2022-07-22T03:43:20;18.60;99.90
23114;DHT22;11726;50.122;8.832;2022-07-22T03:45:47;18.60;99.90
23114;DHT22;11726;50.122;8.832;2022-07-22T03:48:14;18.60;99.90
23114;DHT22;11726;50.122;8.832;2022-07-22T03:50:40;18.40;99.90
23114;DHT22;11726;50.122;8.832;2022-07-22T03:53:07;18.40;99.90
23114;DHT22;11726;50.122;8.832;2022-07-22T03:55:33;18.40;99.90
23114;DHT22;11726;50.122;8.832;2022-07-22T03:58:00;18.40;99.90
23114;DHT22;11726;50.122;8.832;2022-07-22T04:00:27;18.30;99.90
23114;DHT22;11726;50.122;8.832;2022-07-22T04:02:54;18.30;99.90
23114;DHT22;11726;50.122;8.832;2022-07-22T04:05:20;18.20;99.90
23114;DHT22;11726;50.122;8.832;2022-07-22T04:07:47;18.00;99.90
23114;DHT22;11726;50.122;8.832;2022-07-22T04:10:13;18.00;99.90
23114;DHT22;11726;50.122;8.832;2022-07-22T04:12:40;18.00;99.90
23114;DHT22;11726;50.122;8.832;2022-07-22T04:15:07;18.10;99.90
23114;DHT22;11726;50.122;8.832;2022-07-22T04:17:34;18.20;99.90
23114;DHT22;11726;50.122;8.832;2022-07-22T04:20:01;18.20;99.90
23114;DHT22;11726;50.122;8.832;2022-07-22T04:22:28;18.20;99.90
23114;DHT22;11726;50.122;8.832;2022-07-22T04:24:55;18.20;99.90
23114;DHT22;11726;50.122;8.832;2022-07-22T04:27:22;18.30;99.90
23114;DHT22;11726;50.122;8.832;2022-07-22T04:29:50;18.20;99.90
23114;DHT22;11726;50.122;8.832;2022-07-22T04:32:16;18.30;99.90
23114;DHT22;11726;50.122;8.832;2022-07-22T04:34:43;18.40;99.90
23114;DHT22;11726;50.122;8.832;2022-07-22T04:37:09;18.40;99.90
23114;DHT22;11726;50.122;8.832;2022-07-22T04:39:36;18.40;99.90
23114;DHT22;11726;50.122;8.832;2022-07-22T04:42:03;18.40;99.90
23114;DHT22;11726;50.122;8.832;2022-07-22T04:44:30;18.40;99.90
23114;DHT22;11726;50.122;8.832;2022-07-22T04:46:56;18.50;99.90
23114;DHT22;11726;50.122;8.832;2022-07-22T04:49:23;18.60;99.90
23114;DHT22;11726;50.122;8.832;2022-07-22T04:51:52;18.60;99.90
23114;DHT22;11726;50.122;8.832;2022-07-22T04:54:19;18.60;99.90
23114;DHT22;11726;50.122;8.832;2022-07-22T04:56:48;18.60;99.90
23114;DHT22;11726;50.122;8.832;2022-07-22T04:59:14;18.70;99.90
23114;DHT22;11726;50.122;8.832;2022-07-22T05:01:41;18.80;99.90
23114;DHT22;11726;50.122;8.832;2022-07-22T05:04:08;18.80;99.90
23114;DHT22;11726;50.122;8.832;2022-07-22T05:06:34;18.80;99.90
23114;DHT22;11726;50.122;8.832;2022-07-22T05:09:01;18.90;99.90
23114;DHT22;11726;50.122;8.832;2022-07-22T05:11:28;18.90;99.90
23114;DHT22;11726;50.122;8.832;2022-07-22T05:13:54;18.90;99.90
23114;DHT22;11726;50.122;8.832;2022-07-22T05:16:21;19.00;99.90
23114;DHT22;11726;50.122;8.832;2022-07-22T05:18:47;19.10;99.90
23114;DHT22;11726;50.122;8.832;2022-07-22T05:21:14;19.20;99.90
23114;DHT22;11726;50.122;8.832;2022-07-22T05:23:41;19.20;99.90
23114;DHT22;11726;50.122;8.832;2022-07-22T05:26:08;19.20;99.90
23114;DHT22;11726;50.122;8.832;2022-07-22T05:28:35;19.30;99.90
23114;DHT22;11726;50.122;8.832;2022-07-22T05:31:02;19.20;99.90
23114;DHT22;11726;50.122;8.832;2022-07-22T05:33:29;19.20;99.90
23114;DHT22;11726;50.122;8.832;2022-07-22T05:35:55;19.30;99.90
23114;DHT22;11726;50.122;8.832;2022-07-22T05:38:22;19.50;99.90
23114;DHT22;11726;50.122;8.832;2022-07-22T05:40:49;19.50;99.90
23114;DHT22;11726;50.122;8.832;2022-07-22T05:43:15;19.50;99.90
23114;DHT22;11726;50.122;8.832;2022-07-22T05:45:42;19.50;99.90
23114;DHT22;11726;50.122;8.832;2022-07-22T05:48:08;19.60;99.90
23114;DHT22;11726;50.122;8.832;2022-07-22T05:50:35;19.80;99.90
23114;DHT22;11726;50.122;8.832;2022-07-22T05:53:02;19.80;99.90
23114;DHT22;11726;50.122;8.832;2022-07-22T05:55:29;19.90;99.90
23114;DHT22;11726;50.122;8.832;2022-07-22T05:57:55;20.10;99.90
23114;DHT22;11726;50.122;8.832;2022-07-22T06:00:22;20.10;99.90
23114;DHT22;11726;50.122;8.832;2022-07-22T06:02:49;20.10;99.90
23114;DHT22;11726;50.122;8.832;2022-07-22T06:05:16;20.10;99.90
23114;DHT22;11726;50.122;8.832;2022-07-22T06:08:03;20.10;99.90
23114;DHT22;11726;50.122;8.832;2022-07-22T06:10:29;20.20;99.90
23114;DHT22;11726;50.122;8.832;2022-07-22T06:12:56;20.20;99.90
23114;DHT22;11726;50.122;8.832;2022-07-22T06:15:23;20.20;99.90
23114;DHT22;11726;50.122;8.832;2022-07-22T06:17:52;20.20;99.90
23114;DHT22;11726;50.122;8.832;2022-07-22T06:20:19;20.30;99.90
23114;DHT22;11726;50.122;8.832;2022-07-22T06:22:45;20.20;99.90
23114;DHT22;11726;50.122;8.832;2022-07-22T06:25:12;20.20;99.90
23114;DHT22;11726;50.122;8.832;2022-07-22T06:27:59;20.20;99.90
23114;DHT22;11726;50.122;8.832;2022-07-22T06:30:25;20.20;99.90
23114;DHT22;11726;50.122;8.832;2022-07-22T06:32:53;20.20;99.90
23114;DHT22;11726;50.122;8.832;2022-07-22T06:35:22;20.10;99.90
23114;DHT22;11726;50.122;8.832;2022-07-22T06:37:52;20.20;99.90
23114;DHT22;11726;50.122;8.832;2022-07-22T06:40:32;20.20;99.90
23114;DHT22;11726;50.122;8.832;2022-07-22T06:42:59;20.40;99.90
23114;DHT22;11726;50.122;8.832;2022-07-22T06:45:26;20.60;99.90
23114;DHT22;11726;50.122;8.832;2022-07-22T06:47:52;20.80;99.90
23114;DHT22;11726;50.122;8.832;2022-07-22T06:50:19;20.90;99.90
23114;DHT22;11726;50.122;8.832;2022-07-22T06:52:46;21.00;99.90
23114;DHT22;11726;50.122;8.832;2022-07-22T06:55:12;20.90;99.90
23114;DHT22;11726;50.122;8.832;2022-07-22T06:57:39;21.00;99.90
23114;DHT22;11726;50.122;8.832;2022-07-22T07:00:06;21.70;99.90
23114;DHT22;11726;50.122;8.832;2022-07-22T07:02:36;22.80;99.90
23114;DHT22;11726;50.122;8.832;2022-07-22T07:05:04;23.30;99.90
23114;DHT22;11726;50.122;8.832;2022-07-22T07:07:30;23.20;99.90
23114;DHT22;11726;50.122;8.832;2022-07-22T07:09:59;23.10;99.90
23114;DHT22;11726;50.122;8.832;2022-07-22T07:12:26;23.20;99.90
23114;DHT22;11726;50.122;8.832;2022-07-22T07:14:52;23.30;99.90
23114;DHT22;11726;50.122;8.832;2022-07-22T07:17:39;23.40;99.90
23114;DHT22;11726;50.122;8.832;2022-07-22T07:20:06;23.60;99.90
23114;DHT22;11726;50.122;8.832;2022-07-22T07:22:33;23.70;99.90
23114;DHT22;11726;50.122;8.832;2022-07-22T07:25:04;23.40;99.90
23114;DHT22;11726;50.122;8.832;2022-07-22T07:27:47;23.40;99.90
23114;DHT22;11726;50.122;8.832;2022-07-22T07:30:14;23.60;99.90
23114;DHT22;11726;50.122;8.832;2022-07-22T07:32:40;23.40;99.90
23114;DHT22;11726;50.122;8.832;2022-07-22T07:35:08;23.30;99.90
23114;DHT22;11726;50.122;8.832;2022-07-22T07:37:35;23.40;99.90
23114;DHT22;11726;50.122;8.832;2022-07-22T07:40:03;23.30;99.90
23114;DHT22;11726;50.122;8.832;2022-07-22T07:42:29;23.20;99.90
23114;DHT22;11726;50.122;8.832;2022-07-22T07:44:56;23.20;99.90
23114;DHT22;11726;50.122;8.832;2022-07-22T07:47:23;23.30;99.90
23114;DHT22;11726;50.122;8.832;2022-07-22T07:49:49;23.10;99.90
23114;DHT22;11726;50.122;8.832;2022-07-22T07:52:17;23.30;99.90
23114;DHT22;11726;50.122;8.832;2022-07-22T07:54:45;23.60;99.90
23114;DHT22;11726;50.122;8.832;2022-07-22T07:57:31;23.70;99.90
23114;DHT22;11726;50.122;8.832;2022-07-22T08:00:00;23.90;99.90
23114;DHT22;11726;50.122;8.832;2022-07-22T08:02:27;24.20;99.90
23114;DHT22;11726;50.122;8.832;2022-07-22T08:04:54;24.50;99.90
23114;DHT22;11726;50.122;8.832;2022-07-22T08:07:25;24.40;99.90
23114;DHT22;11726;50.122;8.832;2022-07-22T08:09:52;24.10;99.90
23114;DHT22;11726;50.122;8.832;2022-07-22T08:12:39;24.30;99.90
23114;DHT22;11726;50.122;8.832;2022-07-22T08:15:06;24.40;99.90
23114;DHT22;11726;50.122;8.832;2022-07-22T08:17:34;24.60;99.90
23114;DHT22;11726;50.122;8.832;2022-07-22T08:20:02;24.70;99.90
23114;DHT22;11726;50.122;8.832;2022-07-22T08:22:30;24.80;99.90
23114;DHT22;11726;50.122;8.832;2022-07-22T08:24:58;24.80;99.90
23114;DHT22;11726;50.122;8.832;2022-07-22T08:27:25;24.80;99.90
23114;DHT22;11726;50.122;8.832;2022-07-22T08:29:54;24.90;99.90
23114;DHT22;11726;50.122;8.832;2022-07-22T08:32:21;24.80;99.90
23114;DHT22;11726;50.122;8.832;2022-07-22T08:34:48;24.80;99.90
23114;DHT22;11726;50.122;8.832;2022-07-22T08:37:17;25.10;99.90
23114;DHT22;11726;50.122;8.832;2022-07-22T08:39:44;25.00;99.90
23114;DHT22;11726;50.122;8.832;2022-07-22T08:42:10;25.10;99.90
23114;DHT22;11726;50.122;8.832;2022-07-22T08:44:37;25.10;99.90
23114;DHT22;11726;50.122;8.832;2022-07-22T08:47:04;25.20;99.90
23114;DHT22;11726;50.122;8.832;2022-07-22T08:49:50;25.30;99.90
23114;DHT22;11726;50.122;8.832;2022-07-22T08:52:17;25.20;99.90
23114;DHT22;11726;50.122;8.832;2022-07-22T08:54:44;25.20;99.90
23114;DHT22;11726;50.122;8.832;2022-07-22T08:57:10;24.80;99.90
23114;DHT22;11726;50.122;8.832;2022-07-22T08:59:58;25.10;99.90
23114;DHT22;11726;50.122;8.832;2022-07-22T09:02:26;25.40;99.90
23114;DHT22;11726;50.122;8.832;2022-07-22T09:04:58;25.60;99.90
23114;DHT22;11726;50.122;8.832;2022-07-22T09:07:45;25.70;99.90
23114;DHT22;11726;50.122;8.832;2022-07-22T09:10:15;25.70;99.90
23114;DHT22;11726;50.122;8.832;2022-07-22T09:12:58;25.60;99.90
23114;DHT22;11726;50.122;8.832;2022-07-22T09:15:33;25.40;99.90
23114;DHT22;11726;50.122;8.832;2022-07-22T09:18:03;25.50;99.90
23114;DHT22;11726;50.122;8.832;2022-07-22T09:20:33;25.30;99.90
23114;DHT22;11726;50.122;8.832;2022-07-22T09:23:01;25.00;99.90
23114;DHT22;11726;50.122;8.832;2022-07-22T09:25:33;25.10;99.90
23114;DHT22;11726;50.122;8.832;2022-07-22T09:30:37;25.60;99.90
23114;DHT22;11726;50.122;8.832;2022-07-22T09:33:07;25.70;99.90
23114;DHT22;11726;50.122;8.832;2022-07-22T09:35:35;26.00;99.90
23114;DHT22;11726;50.122;8.832;2022-07-22T09:38:04;26.10;99.90
23114;DHT22;11726;50.122;8.832;2022-07-22T09:40:36;26.30;99.90
23114;DHT22;11726;50.122;8.832;2022-07-22T09:43:09;26.10;99.90
23114;DHT22;11726;50.122;8.832;2022-07-22T09:45:56;25.80;99.90
23114;DHT22;11726;50.122;8.832;2022-07-22T09:48:23;26.00;99.90
23114;DHT22;11726;50.122;8.832;2022-07-22T09:50:52;26.50;99.90
23114;DHT22;11726;50.122;8.832;2022-07-22T09:53:21;26.70;99.30
23114;DHT22;11726;50.122;8.832;2022-07-22T09:55:48;27.10;98.90
23114;DHT22;11726;50.122;8.832;2022-07-22T09:58:15;27.10;98.50
23114;DHT22;11726;50.122;8.832;2022-07-22T10:00:43;26.90;98.00
23114;DHT22;11726;50.122;8.832;2022-07-22T10:03:18;26.90;97.40
23114;DHT22;11726;50.122;8.832;2022-07-22T10:05:48;26.60;97.30
23114;DHT22;11726;50.122;8.832;2022-07-22T10:08:14;26.70;98.50
23114;DHT22;11726;50.122;8.832;2022-07-22T10:10:41;26.80;97.80
23114;DHT22;11726;50.122;8.832;2022-07-22T10:13:08;27.10;96.90
23114;DHT22;11726;50.122;8.832;2022-07-22T10:15:36;27.30;96.60
23114;DHT22;11726;50.122;8.832;2022-07-22T10:18:15;27.50;96.50
23114;DHT22;11726;50.122;8.832;2022-07-22T10:20:43;27.80;95.80
23114;DHT22;11726;50.122;8.832;2022-07-22T10:23:11;27.50;95.10
23114;DHT22;11726;50.122;8.832;2022-07-22T10:25:59;27.60;95.50
23114;DHT22;11726;50.122;8.832;2022-07-22T10:28:29;27.30;94.90
23114;DHT22;11726;50.122;8.832;2022-07-22T10:33:44;27.30;95.80
23114;DHT22;11726;50.122;8.832;2022-07-22T10:36:11;27.40;94.30
23114;DHT22;11726;50.122;8.832;2022-07-22T10:39:03;27.40;94.00
23114;DHT22;11726;50.122;8.832;2022-07-22T10:41:37;26.70;96.10
23114;DHT22;11726;50.122;8.832;2022-07-22T10:44:05;27.30;95.50
23114;DHT22;11726;50.122;8.832;2022-07-22T10:46:51;27.70;94.20
23114;DHT22;11726;50.122;8.832;2022-07-22T10:49:21;27.50;93.80
23114;DHT22;11726;50.122;8.832;2022-07-22T10:54:33;27.70;94.10
23114;DHT22;11726;50.122;8.832;2022-07-22T10:57:04;28.00;93.80
23114;DHT22;11726;50.122;8.832;2022-07-22T10:59:30;28.30;94.10
23114;DHT22;11726;50.122;8.832;2022-07-22T11:01:57;27.90;93.00
23114;DHT22;11726;50.122;8.832;2022-07-22T11:04:26;27.40;94.10
23114;DHT22;11726;50.122;8.832;2022-07-22T11:06:55;27.10;93.20
23114;DHT22;11726;50.122;8.832;2022-07-22T11:09:33;27.00;93.50
23114;DHT22;11726;50.122;8.832;2022-07-22T11:12:00;26.70;93.50
23114;DHT22;11726;50.122;8.832;2022-07-22T11:14:29;26.60;94.80
23114;DHT22;11726;50.122;8.832;2022-07-22T11:16:58;27.10;94.50
23114;DHT22;11726;50.122;8.832;2022-07-22T11:19:29;27.50;93.20
23114;DHT22;11726;50.122;8.832;2022-07-22T11:22:02;27.40;92.50
23114;DHT22;11726;50.122;8.832;2022-07-22T11:24:33;27.60;92.40
23114;DHT22;11726;50.122;8.832;2022-07-22T11:27:00;27.60;92.70
23114;DHT22;11726;50.122;8.832;2022-07-22T11:32:04;28.10;92.60
23114;DHT22;11726;50.122;8.832;2022-07-22T11:34:32;28.50;93.00
23114;DHT22;11726;50.122;8.832;2022-07-22T11:36:59;28.60;90.60
23114;DHT22;11726;50.122;8.832;2022-07-22T11:39:29;28.20;89.00
23114;DHT22;11726;50.122;8.832;2022-07-22T11:41:57;28.20;88.60
23114;DHT22;11726;50.122;8.832;2022-07-22T11:44:27;28.30;88.00
23114;DHT22;11726;50.122;8.832;2022-07-22T11:46:54;28.70;90.20
23114;DHT22;11726;50.122;8.832;2022-07-22T11:49:26;28.60;85.70
23114;DHT22;11726;50.122;8.832;2022-07-22T11:51:53;28.60;84.30
23114;DHT22;11726;50.122;8.832;2022-07-22T11:54:20;28.20;84.60
23114;DHT22;11726;50.122;8.832;2022-07-22T11:56:47;28.60;84.00
23114;DHT22;11726;50.122;8.832;2022-07-22T11:59:20;28.80;83.30
23114;DHT22;11726;50.122;8.832;2022-07-22T12:01:48;29.60;80.40
23114;DHT22;11726;50.122;8.832;2022-07-22T12:04:23;30.10;77.10
23114;DHT22;11726;50.122;8.832;2022-07-22T12:06:51;30.30;74.10
23114;DHT22;11726;50.122;8.832;2022-07-22T12:09:25;30.40;71.10
23114;DHT22;11726;50.122;8.832;2022-07-22T12:11:55;30.60;67.30
23114;DHT22;11726;50.122;8.832;2022-07-22T12:14:30;30.50;67.50
23114;DHT22;11726;50.122;8.832;2022-07-22T12:17:03;30.80;67.00
23114;DHT22;11726;50.122;8.832;2022-07-22T12:19:32;30.70;65.70
23114;DHT22;11726;50.122;8.832;2022-07-22T12:22:04;30.80;65.70
23114;DHT22;11726;50.122;8.832;2022-07-22T12:24:43;30.90;66.60
23114;DHT22;11726;50.122;8.832;2022-07-22T12:27:11;31.00;66.70
23114;DHT22;11726;50.122;8.832;2022-07-22T12:32:30;31.20;63.90
23114;DHT22;11726;50.122;8.832;2022-07-22T12:34:59;30.70;64.70
23114;DHT22;11726;50.122;8.832;2022-07-22T12:37:29;30.60;66.70
23114;DHT22;11726;50.122;8.832;2022-07-22T12:40:04;30.40;64.30
23114;DHT22;11726;50.122;8.832;2022-07-22T12:50:40;30.90;63.00
23114;DHT22;11726;50.122;8.832;2022-07-22T12:53:15;31.00;64.90
23114;DHT22;11726;50.122;8.832;2022-07-22T12:55:48;31.20;63.00
23114;DHT22;11726;50.122;8.832;2022-07-22T12:58:18;31.40;65.10
23114;DHT22;11726;50.122;8.832;2022-07-22T13:00:49;31.70;62.40
23114;DHT22;11726;50.122;8.832;2022-07-22T13:03:17;31.60;61.70
23114;DHT22;11726;50.122;8.832;2022-07-22T13:05:55;31.80;62.00
23114;DHT22;11726;50.122;8.832;2022-07-22T13:08:23;31.60;62.10
23114;DHT22;11726;50.122;8.832;2022-07-22T13:10:53;31.40;62.10
23114;DHT22;11726;50.122;8.832;2022-07-22T13:13:21;31.60;62.30
23114;DHT22;11726;50.122;8.832;2022-07-22T13:15:49;31.60;59.50
23114;DHT22;11726;50.122;8.832;2022-07-22T13:18:16;31.60;61.30
23114;DHT22;11726;50.122;8.832;2022-07-22T13:20:43;31.60;61.20
23114;DHT22;11726;50.122;8.832;2022-07-22T13:23:10;31.60;61.00
23114;DHT22;11726;50.122;8.832;2022-07-22T13:25:38;31.40;60.50
23114;DHT22;11726;50.122;8.832;2022-07-22T13:28:05;32.00;59.80
23114;DHT22;11726;50.122;8.832;2022-07-22T13:30:31;31.60;61.30
23114;DHT22;11726;50.122;8.832;2022-07-22T13:32:58;32.10;60.80
23114;DHT22;11726;50.122;8.832;2022-07-22T13:35:25;32.00;60.00
23114;DHT22;11726;50.122;8.832;2022-07-22T13:37:52;32.10;60.20
23114;DHT22;11726;50.122;8.832;2022-07-22T13:40:19;32.30;60.70
23114;DHT22;11726;50.122;8.832;2022-07-22T13:42:45;32.40;59.30
23114;DHT22;11726;50.122;8.832;2022-07-22T13:45:12;32.40;58.50
23114;DHT22;11726;50.122;8.832;2022-07-22T13:47:40;32.50;58.40
23114;DHT22;11726;50.122;8.832;2022-07-22T13:50:07;32.70;58.30
23114;DHT22;11726;50.122;8.832;2022-07-22T13:52:34;32.80;57.10
23114;DHT22;11726;50.122;8.832;2022-07-22T13:55:01;33.10;57.70
23114;DHT22;11726;50.122;8.832;2022-07-22T13:57:27;32.90;56.30
23114;DHT22;11726;50.122;8.832;2022-07-22T13:59:54;33.20;57.60
23114;DHT22;11726;50.122;8.832;2022-07-22T14:02:22;33.50;55.90
23114;DHT22;11726;50.122;8.832;2022-07-22T14:04:49;34.40;54.60
23114;DHT22;11726;50.122;8.832;2022-07-22T14:07:16;33.90;55.10
23114;DHT22;11726;50.122;8.832;2022-07-22T14:09:42;33.60;54.90
23114;DHT22;11726;50.122;8.832;2022-07-22T14:12:09;33.50;54.50
23114;DHT22;11726;50.122;8.832;2022-07-22T14:14:36;33.50;54.10
23114;DHT22;11726;50.122;8.832;2022-07-22T14:17:03;33.70;53.80
23114;DHT22;11726;50.122;8.832;2022-07-22T14:19:30;34.00;53.70
23114;DHT22;11726;50.122;8.832;2022-07-22T14:21:56;33.90;53.80
23114;DHT22;11726;50.122;8.832;2022-07-22T14:24:23;33.80;52.90
23114;DHT22;11726;50.122;8.832;2022-07-22T14:26:51;33.80;52.40
23114;DHT22;11726;50.122;8.832;2022-07-22T14:29:17;33.70;53.00
23114;DHT22;11726;50.122;8.832;2022-07-22T14:31:44;34.10;52.30
23114;DHT22;11726;50.122;8.832;2022-07-22T14:34:12;34.50;52.30
23114;DHT22;11726;50.122;8.832;2022-07-22T14:36:39;34.70;51.10
23114;DHT22;11726;50.122;8.832;2022-07-22T14:39:06;34.50;51.90
23114;DHT22;11726;50.122;8.832;2022-07-22T14:41:33;33.80;52.50
23114;DHT22;11726;50.122;8.832;2022-07-22T14:44:00;33.30;54.30
23114;DHT22;11726;50.122;8.832;2022-07-22T14:46:27;33.30;53.90
23114;DHT22;11726;50.122;8.832;2022-07-22T14:48:54;33.30;53.60
23114;DHT22;11726;50.122;8.832;2022-07-22T14:51:21;33.70;52.90
23114;DHT22;11726;50.122;8.832;2022-07-22T14:53:49;33.80;51.90
23114;DHT22;11726;50.122;8.832;2022-07-22T14:56:16;33.40;53.10
23114;DHT22;11726;50.122;8.832;2022-07-22T14:58:44;33.80;52.60
23114;DHT22;11726;50.122;8.832;2022-07-22T15:01:11;33.90;51.90
23114;DHT22;11726;50.122;8.832;2022-07-22T15:03:40;34.30;52.20
23114;DHT22;11726;50.122;8.832;2022-07-22T15:06:07;34.10;52.40
23114;DHT22;11726;50.122;8.832;2022-07-22T15:08:33;33.90;52.50
23114;DHT22;11726;50.122;8.832;2022-07-22T15:11:00;34.10;51.30
23114;DHT22;11726;50.122;8.832;2022-07-22T15:13:28;34.30;51.80
23114;DHT22;11726;50.122;8.832;2022-07-22T15:15:55;34.80;51.10
23114;DHT22;11726;50.122;8.832;2022-07-22T15:18:23;35.10;50.10
23114;DHT22;11726;50.122;8.832;2022-07-22T15:20:50;34.80;50.30
23114;DHT22;11726;50.122;8.832;2022-07-22T15:23:17;35.00;49.50
23114;DHT22;11726;50.122;8.832;2022-07-22T15:25:44;34.50;50.90
23114;DHT22;11726;50.122;8.832;2022-07-22T15:28:11;34.50;51.00
23114;DHT22;11726;50.122;8.832;2022-07-22T15:30:57;35.10;50.20
23114;DHT22;11726;50.122;8.832;2022-07-22T15:33:24;35.00;49.40
23114;DHT22;11726;50.122;8.832;2022-07-22T15:36:02;34.80;50.30
23114;DHT22;11726;50.122;8.832;2022-07-22T15:38:31;35.40;48.70
23114;DHT22;11726;50.122;8.832;2022-07-22T15:40:58;35.00;49.10
23114;DHT22;11726;50.122;8.832;2022-07-22T15:43:24;34.80;49.20
23114;DHT22;11726;50.122;8.832;2022-07-22T15:45:51;34.40;50.40
23114;DHT22;11726;50.122;8.832;2022-07-22T15:48:18;35.10;48.90
23114;DHT22;11726;50.122;8.832;2022-07-22T15:50:45;35.90;47.20
23114;DHT22;11726;50.122;8.832;2022-07-22T15:53:11;35.60;47.70
23114;DHT22;11726;50.122;8.832;2022-07-22T15:55:38;35.90;48.20
23114;DHT22;11726;50.122;8.832;2022-07-22T15:58:05;35.60;48.50
23114;DHT22;11726;50.122;8.832;2022-07-22T16:00:51;35.40;48.00